createdAt,value
2018-07-05T00:02:37.799Z,2.83
2018-07-05T00:05:18.090Z,2.20
2018-07-05T00:07:58.528Z,2.12
2018-07-05T00:10:38.579Z,2.60
2018-07-05T00:13:18.751Z,2.10
2018-07-05T00:15:59.590Z,2.50
2018-07-05T00:18:39.989Z,2.97
2018-07-05T00:21:20.679Z,2.12
2018-07-05T00:24:01.243Z,2.40
2018-07-05T00:26:41.509Z,2.30
2018-07-05T00:29:22.566Z,2.15
2018-07-05T00:32:03.059Z,2.58
2018-07-05T00:34:43.355Z,2.50
2018-07-05T00:37:23.693Z,2.47
2018-07-05T00:40:04.006Z,2.65
2018-07-05T00:42:44.265Z,2.45
2018-07-05T00:45:24.537Z,2.28
2018-07-05T00:48:04.688Z,2.65
2018-07-05T00:50:44.947Z,2.60
2018-07-05T00:53:25.227Z,3.10
2018-07-05T00:56:05.418Z,2.30
2018-07-05T00:58:45.758Z,2.40
2018-07-05T01:01:26.530Z,2.30
2018-07-05T01:04:07.619Z,2.47
2018-07-05T01:06:49.107Z,2.33
2018-07-05T01:09:29.476Z,2.50
2018-07-05T01:12:09.770Z,2.33
2018-07-05T01:14:50.094Z,2.50
2018-07-05T01:17:30.487Z,2.65
2018-07-05T01:20:10.612Z,2.37
2018-07-05T01:22:55.847Z,2.53
2018-07-05T01:25:35.897Z,2.60
2018-07-05T01:28:16.240Z,2.62
2018-07-05T01:30:56.523Z,2.45
2018-07-05T01:33:37.561Z,2.80
2018-07-05T01:36:17.784Z,2.42
2018-07-05T01:38:58.058Z,2.30
2018-07-05T01:41:39.558Z,2.50
2018-07-05T01:44:19.602Z,3.00
2018-07-05T01:46:59.799Z,2.75
2018-07-05T01:49:40.212Z,2.33
2018-07-05T01:52:20.550Z,2.95
2018-07-05T01:55:01.063Z,2.47
2018-07-05T01:57:41.299Z,2.50
2018-07-05T02:00:21.552Z,3.03
2018-07-05T02:03:01.687Z,2.37
2018-07-05T02:05:41.981Z,2.60
2018-07-05T02:08:22.418Z,2.78
2018-07-05T02:11:02.527Z,2.60
2018-07-05T02:13:43.127Z,2.92
2018-07-05T02:16:24.130Z,3.00
2018-07-05T02:19:05.463Z,2.70
2018-07-05T02:21:45.715Z,2.80
2018-07-05T02:24:26.306Z,2.62
2018-07-05T02:27:06.539Z,2.60
2018-07-05T02:29:46.943Z,2.80
2018-07-05T02:32:27.173Z,2.75
2018-07-05T02:35:09.284Z,3.27
2018-07-05T02:37:49.705Z,2.75
2018-07-05T02:40:30.119Z,2.65
2018-07-05T02:43:10.359Z,2.58
2018-07-05T02:45:50.691Z,2.93
2018-07-05T02:48:31.091Z,2.60
2018-07-05T02:51:11.506Z,2.80
2018-07-05T02:53:51.945Z,2.83
2018-07-05T02:56:32.140Z,3.40
2018-07-05T02:59:12.280Z,3.00
2018-07-05T03:01:52.601Z,3.10
2018-07-05T03:04:32.840Z,2.90
2018-07-05T03:07:13.316Z,3.40
2018-07-05T03:09:53.524Z,3.40
2018-07-05T03:12:33.886Z,3.00
2018-07-05T03:15:14.036Z,3.10
2018-07-05T03:17:54.339Z,2.97
2018-07-05T03:20:34.497Z,3.20
2018-07-05T03:23:15.240Z,3.13
2018-07-05T03:25:56.258Z,3.20
2018-07-05T03:28:36.671Z,3.17
2018-07-05T03:31:17.816Z,3.20
2018-07-05T03:33:58.863Z,3.50
2018-07-05T03:36:39.134Z,3.80
2018-07-05T03:39:19.267Z,3.50
2018-07-05T03:41:59.524Z,3.57
2018-07-05T03:44:39.621Z,3.73
2018-07-05T03:47:19.747Z,3.40
2018-07-05T03:50:00.051Z,3.67
2018-07-05T03:52:40.143Z,3.07
2018-07-05T03:55:20.926Z,3.53
2018-07-05T03:58:01.250Z,3.63
2018-07-05T04:00:41.373Z,3.93
2018-07-05T04:03:21.551Z,3.90
2018-07-05T04:06:01.938Z,4.00
2018-07-05T04:08:42.110Z,3.60
2018-07-05T04:11:22.441Z,4.37
2018-07-05T04:14:03.451Z,3.83
2018-07-05T04:16:43.691Z,3.35
2018-07-05T04:19:24.116Z,4.00
2018-07-05T04:22:04.507Z,4.07
2018-07-05T04:24:44.582Z,4.53
2018-07-05T04:27:24.623Z,4.03
2018-07-05T04:30:04.983Z,4.53
2018-07-05T04:32:45.071Z,3.90
2018-07-05T04:35:27.276Z,4.47
2018-07-05T04:38:07.439Z,4.40
2018-07-05T04:40:47.704Z,4.40
2018-07-05T04:43:27.860Z,4.30
2018-07-05T04:46:07.964Z,4.60
2018-07-05T04:48:48.138Z,4.90
2018-07-05T04:51:28.384Z,5.10
2018-07-05T04:54:08.522Z,4.93
2018-07-05T04:56:48.848Z,4.40
2018-07-05T04:59:29.040Z,4.93
2018-07-05T05:02:11.983Z,5.03
2018-07-05T05:04:52.969Z,4.87
2018-07-05T05:07:33.231Z,4.70
2018-07-05T05:10:13.298Z,4.70
2018-07-05T05:12:53.582Z,4.73
2018-07-05T05:15:34.538Z,4.40
2018-07-05T05:18:14.882Z,5.60
2018-07-05T05:20:54.944Z,6.57
2018-07-05T05:23:35.130Z,4.83
2018-07-05T05:26:15.414Z,5.70
2018-07-05T05:28:55.615Z,5.60
2018-07-05T05:31:35.830Z,5.47
2018-07-05T05:34:16.708Z,5.12
2018-07-05T05:36:56.937Z,5.20
2018-07-05T05:39:37.058Z,5.17
2018-07-05T05:42:17.410Z,6.00
2018-07-05T05:44:57.972Z,5.33
2018-07-05T05:47:38.092Z,5.33
2018-07-05T05:50:18.384Z,5.20
2018-07-05T05:52:58.548Z,4.82
2018-07-05T05:55:42.127Z,4.72
2018-07-05T05:58:22.433Z,5.10
2018-07-05T06:01:02.643Z,4.55
2018-07-05T06:03:43.636Z,4.85
2018-07-05T06:06:24.046Z,4.15
2018-07-05T06:09:04.207Z,4.03
2018-07-05T06:11:44.378Z,5.32
2018-07-05T06:14:24.790Z,5.05
2018-07-05T06:17:04.975Z,4.32
2018-07-05T06:19:45.176Z,3.62
2018-07-05T06:22:26.759Z,3.50
2018-07-05T06:25:07.150Z,4.50
2018-07-05T06:27:47.310Z,4.53
2018-07-05T06:30:27.538Z,4.57
2018-07-05T06:33:07.625Z,3.65
2018-07-05T06:35:47.964Z,3.17
2018-07-05T06:38:28.047Z,3.67
2018-07-05T06:41:08.945Z,5.97
2018-07-05T06:43:49.267Z,4.78
2018-07-05T06:46:29.675Z,2.80
2018-07-05T06:49:09.988Z,2.85
2018-07-05T06:51:50.546Z,8.10
2018-07-05T06:54:30.859Z,4.68
2018-07-05T06:57:11.268Z,2.65
2018-07-05T06:59:51.616Z,2.78
2018-07-05T07:02:31.998Z,2.92
2018-07-05T07:05:12.399Z,3.10
2018-07-05T07:07:56.393Z,2.75
2018-07-05T07:10:36.803Z,2.62
2018-07-05T07:13:17.175Z,2.90
2018-07-05T07:15:58.113Z,2.60
2018-07-05T07:18:38.546Z,2.70
2018-07-05T07:21:18.735Z,3.22
2018-07-05T07:23:58.955Z,3.87
2018-07-05T07:26:39.181Z,2.35
2018-07-05T07:29:20.291Z,2.15
2018-07-05T07:32:00.354Z,2.20
2018-07-05T07:34:40.477Z,1.67
2018-07-05T07:37:21.643Z,1.90
2018-07-05T07:40:02.051Z,2.47
2018-07-05T07:42:29.997Z,2.92
2018-07-05T07:44:57.871Z,1.98
2018-07-05T07:47:25.726Z,2.08
2018-07-05T07:49:54.314Z,2.12
2018-07-05T07:52:24.268Z,1.92
2018-07-05T07:54:53.002Z,2.40
2018-07-05T07:57:21.831Z,2.15
2018-07-05T07:59:49.843Z,2.03
2018-07-05T08:02:17.681Z,2.35
2018-07-05T08:04:45.524Z,4.20
2018-07-05T08:07:13.359Z,4.18
2018-07-05T08:09:42.065Z,3.15
2018-07-05T08:12:10.759Z,3.58
2018-07-05T08:14:38.588Z,3.97
2018-07-05T08:17:06.506Z,3.80
2018-07-05T08:19:34.321Z,3.78
2018-07-05T08:22:02.228Z,3.83
2018-07-05T08:24:30.059Z,6.20
2018-07-05T08:26:57.976Z,6.40
2018-07-05T08:29:25.882Z,6.35
2018-07-05T08:31:53.829Z,5.90
2018-07-05T08:34:21.694Z,5.45
2018-07-05T08:36:54.710Z,6.00
2018-07-05T08:39:22.681Z,5.55
2018-07-05T08:41:50.502Z,4.60
2018-07-05T08:44:18.379Z,4.45
2018-07-05T08:46:46.239Z,4.10
2018-07-05T08:49:14.104Z,3.78
2018-07-05T08:51:43.227Z,3.80
2018-07-05T08:54:14.649Z,3.95
2018-07-05T08:56:42.507Z,3.90
2018-07-05T08:59:10.327Z,3.75
2018-07-05T09:01:38.186Z,4.18
2018-07-05T09:04:06.119Z,3.45
2018-07-05T09:06:34.773Z,3.10
2018-07-05T09:09:02.602Z,2.80
2018-07-05T09:11:30.548Z,3.28
2018-07-05T09:13:58.494Z,2.58
2018-07-05T09:16:26.390Z,2.60
2018-07-05T09:18:54.283Z,3.10
2018-07-05T09:21:22.130Z,3.03
2018-07-05T09:23:50.021Z,2.90
2018-07-05T09:26:17.820Z,3.70
2018-07-05T09:28:46.480Z,2.92
2018-07-05T09:31:14.474Z,2.78
2018-07-05T09:33:43.691Z,2.95
2018-07-05T09:36:11.519Z,2.65
2018-07-05T09:38:39.383Z,2.83
2018-07-05T09:41:07.300Z,2.95
2018-07-05T09:43:35.185Z,2.78
2018-07-05T09:46:03.088Z,2.40
2018-07-05T09:48:30.940Z,2.40
2018-07-05T09:50:59.698Z,2.78
2018-07-05T09:53:28.750Z,2.17
2018-07-05T09:55:56.593Z,2.70
2018-07-05T09:58:24.527Z,2.53
2018-07-05T10:00:52.375Z,2.55
2018-07-05T10:03:20.210Z,2.92
2018-07-05T10:05:48.048Z,2.28
2018-07-05T10:08:15.999Z,2.60
2018-07-05T10:10:43.858Z,2.55
2018-07-05T10:13:11.798Z,2.67
2018-07-05T10:15:42.136Z,2.70
2018-07-05T10:18:10.015Z,2.70
2018-07-05T10:20:38.067Z,2.00
2018-07-05T10:23:06.903Z,2.50
2018-07-05T10:25:34.755Z,2.70
2018-07-05T10:28:02.608Z,2.80
2018-07-05T10:30:42.875Z,2.45
2018-07-05T10:33:23.231Z,2.70
2018-07-05T10:35:51.071Z,2.60
2018-07-05T10:38:19.701Z,2.20
2018-07-05T10:41:00.159Z,2.33
2018-07-05T10:43:40.637Z,2.33
2018-07-05T10:46:20.953Z,2.70
2018-07-05T10:49:02.049Z,2.62
2018-07-05T10:51:42.357Z,2.40
2018-07-05T10:54:22.798Z,2.33
2018-07-05T10:57:04.183Z,2.67
2018-07-05T10:59:44.346Z,2.47
2018-07-05T11:02:24.483Z,2.22
2018-07-05T11:05:04.710Z,3.20
2018-07-05T11:07:44.938Z,2.55
2018-07-05T11:10:25.034Z,2.65
2018-07-05T11:13:05.295Z,2.50
2018-07-05T11:15:45.861Z,2.62
2018-07-05T11:18:28.095Z,2.30
2018-07-05T11:21:09.451Z,2.30
2018-07-05T11:23:50.547Z,2.37
2018-07-05T11:26:30.787Z,2.50
2018-07-05T11:29:11.243Z,2.37
2018-07-05T11:31:51.555Z,2.45
2018-07-05T11:34:32.287Z,2.15
2018-07-05T11:37:12.392Z,2.37
2018-07-05T11:39:53.706Z,2.65
2018-07-05T11:42:34.065Z,2.40
2018-07-05T11:45:14.087Z,2.45
2018-07-05T11:47:55.179Z,2.20
2018-07-05T11:50:35.542Z,2.20
2018-07-05T11:53:15.810Z,2.17
2018-07-05T11:55:56.111Z,2.05
2018-07-05T11:58:36.442Z,2.42
2018-07-05T12:01:16.906Z,2.00
2018-07-05T12:03:57.940Z,2.72
2018-07-05T12:06:39.073Z,1.92
2018-07-05T12:09:19.389Z,2.20
2018-07-05T12:11:59.866Z,2.25
2018-07-05T12:14:40.978Z,2.08
2018-07-05T12:17:21.043Z,2.20
2018-07-05T12:20:01.262Z,2.60
2018-07-05T12:22:41.691Z,1.92
2018-07-05T12:25:22.692Z,2.05
2018-07-05T12:28:03.363Z,2.53
2018-07-05T12:30:44.142Z,2.45
2018-07-05T12:33:26.139Z,2.30
2018-07-05T12:36:08.087Z,2.30
2018-07-05T12:38:48.220Z,2.42
2018-07-05T12:41:28.448Z,2.20
2018-07-05T12:44:08.851Z,2.20
2018-07-05T12:46:49.263Z,1.90
2018-07-05T12:49:29.932Z,2.10
2018-07-05T12:52:10.098Z,2.00
2018-07-05T12:54:50.346Z,2.10
2018-07-05T12:57:30.627Z,2.28
2018-07-05T13:00:10.823Z,2.10
2018-07-05T13:02:51.746Z,2.50
2018-07-05T13:05:32.099Z,2.20
2018-07-05T13:08:12.340Z,2.35
2018-07-05T13:10:52.519Z,2.17
2018-07-05T13:13:33.086Z,2.05
2018-07-05T13:16:14.444Z,2.28
2018-07-05T13:18:54.744Z,2.50
2018-07-05T13:21:35.220Z,2.53
2018-07-05T13:24:15.586Z,2.25
2018-07-05T13:26:55.691Z,2.37
2018-07-05T13:29:35.950Z,2.60
2018-07-05T13:32:17.679Z,2.30
2018-07-05T13:34:57.996Z,2.40
2018-07-05T13:37:38.036Z,2.47
2018-07-05T13:40:19.058Z,2.10
2018-07-05T13:42:59.139Z,2.10
2018-07-05T13:45:40.179Z,2.25
2018-07-05T13:48:20.412Z,2.10
2018-07-05T13:51:00.658Z,2.08
2018-07-05T13:53:41.731Z,2.10
2018-07-05T13:56:22.962Z,2.30
2018-07-05T13:59:07.138Z,2.45
2018-07-05T14:01:47.475Z,2.30
2018-07-05T14:04:27.787Z,2.03
2018-07-05T14:07:08.671Z,2.22
2018-07-05T14:09:49.018Z,2.37
2018-07-05T14:12:31.972Z,2.55
2018-07-05T14:15:12.762Z,2.30
2018-07-05T14:17:54.918Z,2.12
2018-07-05T14:20:36.247Z,2.08
2018-07-05T14:23:19.387Z,2.10
2018-07-05T14:26:00.655Z,1.77
2018-07-05T14:28:40.915Z,2.22
2018-07-05T14:31:21.838Z,2.00
2018-07-05T14:34:02.060Z,2.45
2018-07-05T14:36:42.609Z,2.10
2018-07-05T14:39:22.960Z,2.62
2018-07-05T14:42:03.173Z,2.10
2018-07-05T14:44:44.358Z,2.20
2018-07-05T14:47:30.495Z,2.15
2018-07-05T14:50:10.874Z,1.98
2018-07-05T14:52:51.063Z,2.25
2018-07-05T14:55:31.484Z,2.00
2018-07-05T14:58:12.069Z,2.17
2018-07-05T15:00:52.272Z,3.65
2018-07-05T15:03:32.663Z,1.77
2018-07-05T15:06:12.998Z,1.83
2018-07-05T15:08:53.276Z,2.33
2018-07-05T15:11:33.534Z,1.90
2018-07-05T15:14:14.127Z,2.00
2018-07-05T15:16:54.715Z,1.92
2018-07-05T15:19:35.403Z,1.85
2018-07-05T15:22:16.520Z,1.70
2018-07-05T15:24:56.839Z,1.87
2018-07-05T15:27:37.026Z,2.08
2018-07-05T15:30:17.282Z,9.98
2018-07-05T15:32:58.103Z,1.75
2018-07-05T15:35:38.764Z,1.83
2018-07-05T15:38:19.722Z,1.80
2018-07-05T15:41:00.042Z,1.75
2018-07-05T15:43:41.288Z,1.98
2018-07-05T15:46:21.527Z,1.90
2018-07-05T15:49:03.639Z,2.20
2018-07-05T15:51:45.586Z,2.30
2018-07-05T15:54:25.679Z,2.12
2018-07-05T15:57:06.793Z,1.90
2018-07-05T15:59:47.163Z,2.05
2018-07-05T16:02:27.462Z,2.17
2018-07-05T16:05:07.693Z,2.00
2018-07-05T16:10:33.530Z,1.80
2018-07-05T16:13:15.744Z,1.80
2018-07-05T16:15:55.914Z,2.08
2018-07-05T16:18:36.340Z,2.00
2018-07-05T16:21:16.681Z,2.05
2018-07-05T16:23:57.555Z,1.90
2018-07-05T16:26:37.860Z,12.13
2018-07-05T16:29:17.974Z,2.12
2018-07-05T16:31:58.529Z,1.70
2018-07-05T16:34:38.846Z,1.90
2018-07-05T16:37:19.485Z,2.20
2018-07-05T16:39:59.727Z,1.90
2018-07-05T16:42:41.320Z,2.10
2018-07-05T16:45:21.703Z,2.15
2018-07-05T16:48:01.993Z,2.10
2018-07-05T16:50:42.152Z,1.80
2018-07-05T16:53:26.232Z,6.10
2018-07-05T16:56:06.502Z,1.90
2018-07-05T16:58:46.871Z,2.20
2018-07-05T17:01:28.239Z,2.12
2018-07-05T17:04:08.452Z,1.73
2018-07-05T17:06:48.739Z,2.30
2018-07-05T17:09:29.067Z,2.10
2018-07-05T17:12:09.184Z,2.33
2018-07-05T17:14:49.485Z,1.90
2018-07-05T17:17:29.641Z,2.30
2018-07-05T17:20:09.774Z,2.25
2018-07-05T17:22:50.118Z,2.40
2018-07-05T17:25:30.447Z,2.60
2018-07-05T17:28:10.718Z,2.22
2018-07-05T17:30:50.890Z,2.30
2018-07-05T17:33:31.103Z,2.60
2018-07-05T17:36:12.007Z,4.22
2018-07-05T17:38:52.330Z,2.70
2018-07-05T17:41:33.249Z,2.62
2018-07-05T17:44:13.573Z,2.55
2018-07-05T17:46:54.615Z,2.60
2018-07-05T17:49:35.041Z,2.40
2018-07-05T17:52:15.387Z,2.47
2018-07-05T17:54:55.522Z,2.67
2018-07-05T17:57:36.961Z,2.60
2018-07-05T18:00:17.281Z,2.58
2018-07-05T18:02:58.252Z,2.70
2018-07-05T18:05:38.535Z,2.60
2018-07-05T18:08:19.176Z,2.55
2018-07-05T18:10:59.581Z,2.65
2018-07-05T18:13:39.891Z,2.70
2018-07-05T18:16:20.719Z,2.62
2018-07-05T18:19:00.854Z,3.00
2018-07-05T18:21:44.723Z,3.08
2018-07-05T18:24:24.964Z,2.90
2018-07-05T18:27:05.122Z,2.83
2018-07-05T18:29:48.883Z,2.87
2018-07-05T18:35:15.632Z,2.28
2018-07-05T18:37:55.773Z,2.37
2018-07-05T18:40:36.451Z,2.35
2018-07-05T18:43:16.603Z,2.70
2018-07-05T18:45:57.384Z,2.70
2018-07-05T18:48:37.545Z,9.82
2018-07-05T18:51:17.984Z,2.75
2018-07-05T18:53:58.261Z,2.90
2018-07-05T18:56:38.300Z,2.83
2018-07-05T18:59:18.897Z,2.85
2018-07-05T19:01:59.108Z,2.50
2018-07-05T19:04:39.476Z,2.83
2018-07-05T19:07:19.569Z,2.40
2018-07-05T19:09:59.762Z,2.67
2018-07-05T19:12:40.062Z,2.60
2018-07-05T19:15:20.383Z,2.67
2018-07-05T19:18:00.597Z,2.80
2018-07-05T19:20:40.923Z,2.60
2018-07-05T19:23:21.252Z,2.90
2018-07-05T19:26:01.659Z,2.45
2018-07-05T19:28:42.419Z,2.92
2018-07-05T19:31:22.982Z,2.47
2018-07-05T19:34:03.057Z,2.80
2018-07-05T19:36:43.344Z,2.80
2018-07-05T19:39:23.824Z,2.90
2018-07-05T19:42:04.217Z,3.40
2018-07-05T19:44:44.527Z,3.10
2018-07-05T19:47:25.602Z,3.00
2018-07-05T19:50:06.728Z,2.78
2018-07-05T19:52:47.122Z,3.12
2018-07-05T19:55:27.370Z,3.25
2018-07-05T19:58:07.763Z,3.10
2018-07-05T20:00:48.249Z,3.08
2018-07-05T20:03:28.616Z,3.12
2018-07-05T20:06:18.917Z,3.10
2018-07-05T20:08:59.240Z,3.00
2018-07-05T20:11:43.151Z,4.68
2018-07-05T20:14:23.557Z,2.95
2018-07-05T20:17:04.584Z,5.80
2018-07-05T20:19:44.814Z,5.28
2018-07-05T20:22:25.032Z,4.30
2018-07-05T20:25:05.916Z,2.90
2018-07-05T20:27:47.171Z,2.80
2018-07-05T20:30:28.133Z,2.90
2018-07-05T20:33:09.025Z,3.53
2018-07-05T20:35:50.093Z,3.83
2018-07-05T20:38:30.465Z,2.90
2018-07-05T20:41:11.847Z,2.45
2018-07-05T20:43:52.219Z,2.47
2018-07-05T20:46:34.963Z,2.75
2018-07-05T20:49:15.241Z,2.50
2018-07-05T20:51:55.384Z,4.97
2018-07-05T20:54:35.816Z,7.35
2018-07-05T20:57:18.296Z,5.72
2018-07-05T21:00:01.461Z,3.40
2018-07-05T21:02:42.725Z,2.40
2018-07-05T21:05:26.071Z,2.70
2018-07-05T21:08:06.473Z,2.95
2018-07-05T21:10:46.730Z,2.33
2018-07-05T21:13:27.130Z,2.45
2018-07-05T21:16:07.639Z,2.62
2018-07-05T21:18:47.819Z,2.42
2018-07-05T21:21:28.479Z,2.60
2018-07-05T21:24:09.023Z,3.10
2018-07-05T21:26:49.285Z,2.70
2018-07-05T21:29:30.214Z,2.35
2018-07-05T21:32:11.438Z,2.45
2018-07-05T21:34:51.511Z,2.50
2018-07-05T21:37:31.736Z,2.10
2018-07-05T21:40:12.880Z,2.20
2018-07-05T21:42:52.972Z,2.22
2018-07-05T21:45:33.037Z,2.40
2018-07-05T21:48:13.204Z,2.73
2018-07-05T21:50:54.523Z,2.40
2018-07-05T21:53:36.125Z,2.60
2018-07-05T21:56:16.259Z,3.50
2018-07-05T21:58:56.569Z,2.03
2018-07-05T22:01:37.255Z,2.25
2018-07-05T22:04:17.365Z,2.17
2018-07-05T22:06:57.455Z,2.60
2018-07-05T22:09:37.652Z,2.22
2018-07-05T22:12:17.828Z,2.58
2018-07-05T22:14:59.356Z,2.50
2018-07-05T22:17:39.887Z,2.50
2018-07-05T22:26:40.064Z,2.80
2018-07-05T22:32:27.146Z,2.90
2018-07-05T22:35:07.366Z,4.97
2018-07-05T22:37:47.919Z,2.90
2018-07-05T22:40:28.716Z,3.07
2018-07-05T22:43:08.898Z,3.03
2018-07-05T22:45:50.033Z,2.60
2018-07-05T22:48:30.238Z,3.00
2018-07-05T22:51:11.222Z,2.90
2018-07-05T22:53:51.279Z,3.80
2018-07-05T22:56:31.653Z,4.13
2018-07-05T22:59:11.990Z,4.75
2018-07-05T23:01:52.981Z,5.43
2018-07-05T23:04:34.299Z,5.30
2018-07-05T23:07:14.510Z,5.30
2018-07-05T23:09:54.621Z,5.70
2018-07-05T23:12:34.911Z,5.90
2018-07-05T23:15:15.674Z,5.87
2018-07-05T23:17:56.008Z,6.17
2018-07-05T23:20:36.538Z,6.07
2018-07-05T23:23:17.614Z,5.37
2018-07-05T23:25:59.149Z,5.90
2018-07-05T23:28:39.876Z,5.77
2018-07-05T23:31:21.049Z,6.07
2018-07-05T23:34:01.419Z,6.10
2018-07-05T23:36:42.198Z,5.97
2018-07-05T23:39:22.570Z,5.70
2018-07-05T23:42:02.729Z,6.07
2018-07-05T23:44:42.735Z,6.00
2018-07-05T23:47:23.107Z,5.53
2018-07-05T23:50:03.461Z,5.93
2018-07-05T23:52:43.980Z,5.47
2018-07-05T23:55:24.187Z,6.30
2018-07-05T23:58:05.290Z,6.60
